Bonpland, Argentina
Current Conditions -  °F | °C
As of 11:00 AM on Sunday 25 Jan 2015 (Local Time) from SARL Reporting Station
Broken Clouds Broken Clouds  
Wind Chill: 88°   Ceiling: 2000
Heat Index: 94°   Visibility: 6mi
Dew Point: 72°   Wind: 3mph
Humidity: 58%   Direction: 230°SW
Pressure: 29.85"   Gusts: NA
Location:  29.82°S, 57.43°W
Report Text: SARL 251400Z 23003KT 9999 BKN020 BKN200 31/22 Q1011
Loading
Personal Weather Stations






























Interactive Weather Map New forecast layout! Learn more

10-Day Weather Forecast

Advertisements
Track Severe Weather on mobile